createdAt,value
2022-10-29T00:00:39.572Z,3.30
2022-10-29T00:05:54.574Z,4.15
2022-10-29T00:11:09.976Z,3.67
2022-10-29T00:16:25.569Z,4.13
2022-10-29T00:21:40.608Z,3.67
2022-10-29T00:26:55.559Z,3.42
2022-10-29T00:32:10.985Z,3.65
2022-10-29T00:37:26.892Z,3.40
2022-10-29T00:42:42.650Z,3.50
2022-10-29T00:47:57.870Z,3.60
2022-10-29T00:53:13.597Z,4.63
2022-10-29T00:58:28.601Z,3.42
2022-10-29T01:03:43.374Z,3.40
2022-10-29T01:08:58.608Z,3.83
2022-10-29T01:14:13.616Z,3.75
2022-10-29T01:19:28.639Z,3.33
2022-10-29T01:24:43.576Z,3.00
2022-10-29T01:29:58.615Z,2.97
2022-10-29T01:35:13.955Z,3.05
2022-10-29T01:40:29.620Z,3.58
2022-10-29T01:45:44.574Z,2.85
2022-10-29T01:50:59.829Z,3.05
2022-10-29T01:56:15.605Z,3.17
2022-10-29T02:01:30.685Z,3.10
2022-10-29T02:06:45.574Z,3.15
2022-10-29T02:12:00.692Z,3.72
2022-10-29T02:17:15.915Z,2.53
2022-10-29T02:22:31.598Z,3.33
2022-10-29T02:27:46.886Z,2.60
2022-10-29T02:33:02.928Z,3.63
2022-10-29T02:38:18.894Z,2.70
2022-10-29T02:43:34.584Z,3.55
2022-10-29T02:48:49.895Z,2.58
2022-10-29T02:54:05.629Z,3.20
2022-10-29T02:59:20.646Z,3.92
2022-10-29T03:04:35.342Z,3.53
2022-10-29T03:09:50.613Z,3.53
2022-10-29T03:15:05.596Z,3.88
2022-10-29T03:20:20.620Z,3.90
2022-10-29T03:25:35.632Z,3.47
2022-10-29T03:30:50.684Z,3.88
2022-10-29T03:36:05.626Z,2.95
2022-10-29T03:41:20.987Z,3.30
2022-10-29T03:46:36.910Z,3.38
2022-10-29T03:51:52.662Z,3.67
2022-10-29T03:57:07.896Z,3.67
2022-10-29T04:02:24.041Z,4.07
2022-10-29T04:07:39.633Z,3.70
2022-10-29T04:12:55.175Z,3.80
2022-10-29T04:18:10.613Z,4.10
2022-10-29T04:29:00.584Z,4.43
2022-10-29T04:34:15.781Z,3.58
2022-10-29T04:39:30.601Z,4.55
2022-10-29T04:44:45.907Z,4.85
2022-10-29T04:50:01.624Z,4.05
2022-10-29T04:55:16.613Z,3.88
2022-10-29T05:00:31.590Z,4.50
2022-10-29T05:05:46.591Z,4.22
2022-10-29T05:11:01.618Z,4.00
2022-10-29T05:16:16.662Z,3.97
2022-10-29T05:21:31.605Z,3.50
2022-10-29T05:26:46.651Z,4.05
2022-10-29T05:32:01.618Z,4.80
2022-10-29T05:37:16.751Z,4.15
2022-10-29T05:42:31.601Z,5.03
2022-10-29T05:47:46.911Z,5.00
2022-10-29T05:53:02.606Z,4.85
2022-10-29T05:58:17.660Z,5.03
2022-10-29T06:03:32.610Z,5.45
2022-10-29T06:08:47.678Z,4.88
2022-10-29T06:14:02.654Z,5.32
2022-10-29T06:19:17.904Z,5.05
2022-10-29T06:24:33.618Z,4.07
2022-10-29T06:29:48.597Z,4.63
2022-10-29T06:35:03.902Z,4.60
2022-10-29T06:40:19.609Z,4.25
2022-10-29T06:45:34.383Z,4.82
2022-10-29T06:50:49.998Z,3.72
2022-10-29T06:56:05.659Z,4.15
2022-10-29T07:01:20.712Z,4.78
2022-10-29T07:06:35.666Z,5.15
2022-10-29T07:11:50.972Z,4.30
2022-10-29T07:17:06.610Z,4.30
2022-10-29T07:22:21.627Z,4.40
2022-10-29T07:27:36.663Z,3.92
2022-10-29T07:32:51.756Z,4.40
2022-10-29T07:38:09.242Z,3.90
2022-10-29T07:43:25.966Z,3.90
2022-10-29T07:48:41.634Z,4.03
2022-10-29T07:53:56.666Z,4.05
2022-10-29T07:59:11.715Z,3.72
2022-10-29T08:04:26.592Z,4.28
2022-10-29T08:09:41.635Z,3.90
2022-10-29T08:14:56.656Z,3.85
2022-10-29T08:20:11.615Z,3.72
2022-10-29T08:25:26.618Z,3.63
2022-10-29T08:30:41.617Z,4.10
2022-10-29T08:35:56.611Z,4.93
2022-10-29T08:41:11.956Z,4.88
2022-10-29T08:46:27.388Z,5.28
2022-10-29T08:51:42.673Z,5.72
2022-10-29T08:56:57.610Z,5.90
2022-10-29T09:02:12.654Z,5.30
2022-10-29T09:07:27.675Z,5.43
2022-10-29T09:12:42.609Z,5.70
2022-10-29T09:17:58.294Z,5.35
2022-10-29T09:23:13.608Z,5.40
2022-10-29T09:28:28.946Z,6.38
2022-10-29T09:33:44.628Z,6.30
2022-10-29T09:38:59.629Z,8.63
2022-10-29T09:44:14.654Z,18.58
2022-10-29T09:49:29.630Z,17.08
2022-10-29T09:54:44.609Z,20.20
2022-10-29T09:59:59.912Z,19.02
2022-10-29T10:05:20.631Z,18.13
2022-10-29T10:10:35.691Z,15.80
2022-10-29T10:15:50.650Z,14.30
2022-10-29T10:21:05.692Z,12.10
2022-10-29T10:26:21.097Z,11.90
2022-10-29T10:31:37.106Z,11.48
2022-10-29T10:36:53.141Z,10.18
2022-10-29T10:42:08.675Z,9.32
2022-10-29T10:47:23.916Z,8.63
2022-10-29T10:52:39.675Z,7.82
2022-10-29T10:57:54.625Z,7.78
2022-10-29T11:03:09.673Z,6.70
2022-10-29T11:08:24.935Z,6.63
2022-10-29T11:13:40.705Z,7.22
2022-10-29T11:18:55.615Z,9.05
2022-10-29T11:24:10.728Z,9.10
2022-10-29T11:29:25.942Z,8.63
2022-10-29T11:34:41.921Z,8.73
2022-10-29T11:39:57.931Z,8.32
2022-10-29T11:45:13.629Z,7.88
2022-10-29T11:50:28.636Z,7.45
2022-10-29T11:55:43.673Z,7.30
2022-10-29T12:00:58.646Z,6.38
2022-10-29T12:06:13.992Z,6.95
2022-10-29T12:11:29.663Z,7.05
2022-10-29T12:16:44.725Z,6.80
2022-10-29T12:22:00.028Z,6.18
2022-10-29T12:27:15.633Z,7.38
2022-10-29T12:32:30.670Z,6.68
2022-10-29T12:37:45.647Z,6.65
2022-10-29T12:43:00.702Z,6.15
2022-10-29T12:48:15.844Z,5.88
2022-10-29T12:53:31.956Z,5.93
2022-10-29T12:58:47.678Z,5.60
2022-10-29T13:04:02.624Z,6.22
2022-10-29T13:09:17.675Z,6.00
2022-10-29T13:14:32.417Z,5.75
2022-10-29T13:19:47.676Z,5.20
2022-10-29T13:25:02.960Z,5.45
2022-10-29T13:30:18.641Z,5.03
2022-10-29T13:35:33.999Z,5.50
2022-10-29T13:40:49.471Z,5.63
2022-10-29T13:46:04.633Z,4.72
2022-10-29T13:51:19.707Z,4.82
2022-10-29T13:56:34.960Z,5.65
2022-10-29T14:01:50.717Z,5.32
2022-10-29T14:07:05.656Z,5.55
2022-10-29T14:12:20.672Z,4.53
2022-10-29T14:17:35.730Z,4.80
2022-10-29T14:22:50.678Z,5.00
2022-10-29T14:28:05.528Z,4.70
2022-10-29T14:33:20.976Z,5.70
2022-10-29T14:38:36.647Z,5.30
2022-10-29T14:43:51.420Z,4.95
2022-10-29T14:49:06.713Z,4.15
2022-10-29T14:54:22.006Z,5.13
2022-10-29T14:59:36.689Z,4.93
2022-10-29T15:04:51.685Z,5.03
2022-10-29T15:10:06.672Z,4.75
2022-10-29T15:15:21.962Z,4.82
2022-10-29T15:20:37.443Z,5.00
2022-10-29T15:25:53.140Z,5.72
2022-10-29T15:31:08.722Z,4.30
2022-10-29T15:36:24.052Z,4.55
2022-10-29T15:41:39.999Z,4.82
2022-10-29T15:46:55.426Z,4.82
2022-10-29T15:52:10.666Z,4.82
2022-10-29T15:57:25.736Z,4.88
2022-10-29T16:02:40.719Z,4.63
2022-10-29T16:07:55.687Z,5.05
2022-10-29T16:13:10.987Z,5.15
2022-10-29T16:18:26.963Z,4.82
2022-10-29T16:23:42.670Z,5.88
2022-10-29T16:28:57.972Z,4.72
2022-10-29T16:34:13.686Z,4.97
2022-10-29T16:39:28.989Z,5.30
2022-10-29T16:44:45.035Z,5.10
2022-10-29T16:50:00.702Z,5.68
2022-10-29T16:55:16.681Z,7.35
2022-10-29T17:00:31.669Z,8.55
2022-10-29T17:05:46.678Z,10.15
2022-10-29T17:11:01.948Z,9.70
2022-10-29T17:16:17.658Z,11.23
2022-10-29T17:21:32.654Z,11.02
2022-10-29T17:26:47.693Z,11.88
2022-10-29T17:37:38.005Z,12.25
2022-10-29T17:43:31.427Z,12.95
2022-10-29T17:48:46.657Z,12.07
2022-10-29T17:54:01.715Z,11.75
2022-10-29T17:59:16.686Z,11.10
2022-10-29T18:04:31.748Z,11.32
2022-10-29T18:09:46.653Z,10.63
2022-10-29T18:15:01.714Z,10.88
2022-10-29T18:20:16.712Z,10.02
2022-10-29T18:25:31.907Z,9.80
2022-10-29T18:30:46.695Z,10.38
2022-10-29T18:36:01.515Z,10.43
2022-10-29T18:41:16.589Z,10.25
2022-10-29T18:46:31.740Z,8.02
2022-10-29T18:51:46.689Z,9.15
2022-10-29T18:57:02.036Z,9.05
2022-10-29T19:02:17.818Z,7.45
2022-10-29T19:07:32.434Z,8.15
2022-10-29T19:12:47.501Z,7.65
2022-10-29T19:18:02.661Z,7.00
2022-10-29T19:23:18.004Z,7.20
2022-10-29T19:28:33.688Z,6.45
2022-10-29T19:33:48.702Z,6.97
2022-10-29T19:39:04.000Z,6.85
2022-10-29T19:44:19.994Z,7.05
2022-10-29T19:49:35.762Z,6.68
2022-10-29T19:54:50.440Z,6.75
2022-10-29T20:00:05.702Z,6.60
2022-10-29T20:05:20.694Z,5.80
2022-10-29T20:10:35.725Z,6.00
2022-10-29T20:15:51.031Z,6.32
2022-10-29T20:26:21.668Z,6.88
2022-10-29T20:31:41.139Z,5.60
2022-10-29T20:36:56.776Z,6.18
2022-10-29T20:42:11.709Z,5.63
2022-10-29T20:47:26.459Z,6.05
2022-10-29T20:52:47.209Z,6.60
2022-10-29T20:58:03.653Z,5.82
2022-10-29T21:03:18.678Z,5.65
2022-10-29T21:08:33.680Z,7.25
2022-10-29T21:13:48.750Z,5.50
2022-10-29T21:19:03.655Z,6.20
2022-10-29T21:24:18.705Z,5.93
2022-10-29T21:29:33.703Z,5.45
2022-10-29T21:34:48.435Z,5.65
2022-10-29T21:40:06.293Z,5.65
2022-10-29T21:45:21.671Z,6.38
2022-10-29T21:50:36.970Z,6.03
2022-10-29T21:55:52.680Z,6.38
2022-10-29T22:01:07.759Z,6.38
2022-10-29T22:06:22.707Z,5.78
2022-10-29T22:11:37.716Z,6.13
2022-10-29T22:16:52.670Z,6.63
2022-10-29T22:22:07.687Z,5.53
2022-10-29T22:27:23.092Z,6.22
2022-10-29T22:32:38.714Z,5.95
2022-10-29T22:37:53.791Z,5.32
2022-10-29T22:43:08.664Z,6.85
2022-10-29T22:48:23.652Z,5.50
2022-10-29T22:53:38.986Z,6.72
2022-10-29T22:58:55.015Z,5.97
2022-10-29T23:04:10.736Z,6.00
2022-10-29T23:09:25.697Z,6.63
2022-10-29T23:14:40.758Z,5.95
2022-10-29T23:19:55.671Z,6.38
2022-10-29T23:25:10.688Z,6.10
2022-10-29T23:30:25.703Z,7.30
2022-10-29T23:35:40.670Z,5.82
2022-10-29T23:40:56.009Z,6.32
2022-10-29T23:46:11.455Z,6.43
2022-10-29T23:51:26.698Z,5.97
2022-10-29T23:56:41.714Z,6.18
